sensor_id;sensor_type;location;lat;lon;timestamp;pressure;altitude;pressure_sealevel;temperature;humidity
13029;BME280;6581;42.662;23.402;2022-08-14T00:00:26;94811.84;;;18.65;100.00
13029;BME280;6581;42.662;23.402;2022-08-14T00:02:53;94806.53;;;18.61;100.00
13029;BME280;6581;42.662;23.402;2022-08-14T00:05:21;94801.44;;;18.67;100.00
13029;BME280;6581;42.662;23.402;2022-08-14T00:07:48;94801.53;;;18.63;100.00
13029;BME280;6581;42.662;23.402;2022-08-14T00:10:19;94791.72;;;18.56;100.00
13029;BME280;6581;42.662;23.402;2022-08-14T00:12:50;94797.00;;;18.60;100.00
13029;BME280;6581;42.662;23.402;2022-08-14T00:15:21;94792.06;;;18.58;100.00
13029;BME280;6581;42.662;23.402;2022-08-14T00:17:50;94793.56;;;18.59;100.00
13029;BME280;6581;42.662;23.402;2022-08-14T00:20:20;94790.69;;;18.50;100.00
13029;BME280;6581;42.662;23.402;2022-08-14T00:22:48;94783.81;;;18.49;100.00
13029;BME280;6581;42.662;23.402;2022-08-14T00:25:15;94782.66;;;18.50;100.00
13029;BME280;6581;42.662;23.402;2022-08-14T00:27:42;94786.44;;;18.53;100.00
13029;BME280;6581;42.662;23.402;2022-08-14T00:30:12;94786.03;;;18.54;100.00
13029;BME280;6581;42.662;23.402;2022-08-14T00:32:41;94791.84;;;18.49;100.00
13029;BME280;6581;42.662;23.402;2022-08-14T00:35:09;94795.63;;;18.52;100.00
13029;BME280;6581;42.662;23.402;2022-08-14T00:37:37;94796.06;;;18.50;100.00
13029;BME280;6581;42.662;23.402;2022-08-14T00:40:07;94792.81;;;18.59;100.00
13029;BME280;6581;42.662;23.402;2022-08-14T00:42:35;94789.63;;;18.64;100.00
13029;BME280;6581;42.662;23.402;2022-08-14T00:45:03;94792.47;;;18.57;100.00
13029;BME280;6581;42.662;23.402;2022-08-14T00:47:32;94792.22;;;18.51;100.00
13029;BME280;6581;42.662;23.402;2022-08-14T00:50:01;94782.59;;;18.54;100.00
13029;BME280;6581;42.662;23.402;2022-08-14T00:52:29;94776.47;;;18.53;100.00
13029;BME280;6581;42.662;23.402;2022-08-14T00:54:57;94780.38;;;18.49;100.00
13029;BME280;6581;42.662;23.402;2022-08-14T00:57:26;94773.84;;;18.50;100.00
13029;BME280;6581;42.662;23.402;2022-08-14T00:59:54;94768.91;;;18.48;100.00
13029;BME280;6581;42.662;23.402;2022-08-14T01:02:23;94766.63;;;18.47;100.00
13029;BME280;6581;42.662;23.402;2022-08-14T01:04:54;94769.41;;;18.43;100.00
13029;BME280;6581;42.662;23.402;2022-08-14T01:07:23;94760.28;;;18.41;100.00
13029;BME280;6581;42.662;23.402;2022-08-14T01:09:52;94760.59;;;18.43;100.00
13029;BME280;6581;42.662;23.402;2022-08-14T01:12:21;94765.19;;;18.42;100.00
13029;BME280;6581;42.662;23.402;2022-08-14T01:14:48;94762.69;;;18.35;100.00
13029;BME280;6581;42.662;23.402;2022-08-14T01:17:20;94776.09;;;18.35;100.00
13029;BME280;6581;42.662;23.402;2022-08-14T01:19:47;94764.72;;;18.31;100.00
13029;BME280;6581;42.662;23.402;2022-08-14T01:22:59;94765.03;;;18.33;100.00
13029;BME280;6581;42.662;23.402;2022-08-14T01:25:26;94754.66;;;18.35;100.00
13029;BME280;6581;42.662;23.402;2022-08-14T01:27:53;94755.72;;;18.38;100.00
13029;BME280;6581;42.662;23.402;2022-08-14T01:30:23;94742.16;;;18.29;100.00
13029;BME280;6581;42.662;23.402;2022-08-14T01:32:52;94735.72;;;18.26;100.00
13029;BME280;6581;42.662;23.402;2022-08-14T01:35:20;94748.28;;;18.29;100.00
13029;BME280;6581;42.662;23.402;2022-08-14T01:37:47;94740.59;;;18.31;100.00
13029;BME280;6581;42.662;23.402;2022-08-14T01:40:16;94750.28;;;18.25;100.00
13029;BME280;6581;42.662;23.402;2022-08-14T01:42:45;94751.91;;;18.23;100.00
13029;BME280;6581;42.662;23.402;2022-08-14T01:45:13;94753.56;;;18.16;100.00
13029;BME280;6581;42.662;23.402;2022-08-14T01:47:40;94755.97;;;18.11;100.00
13029;BME280;6581;42.662;23.402;2022-08-14T01:50:09;94761.44;;;18.07;100.00
13029;BME280;6581;42.662;23.402;2022-08-14T01:52:37;94755.97;;;18.11;100.00
13029;BME280;6581;42.662;23.402;2022-08-14T01:55:06;94754.16;;;18.08;100.00
13029;BME280;6581;42.662;23.402;2022-08-14T01:57:43;94747.94;;;18.11;100.00
13029;BME280;6581;42.662;23.402;2022-08-14T02:00:12;94743.34;;;18.11;100.00
13029;BME280;6581;42.662;23.402;2022-08-14T02:02:44;94747.53;;;18.12;100.00
13029;BME280;6581;42.662;23.402;2022-08-14T02:05:12;94744.19;;;18.08;100.00
13029;BME280;6581;42.662;23.402;2022-08-14T02:07:39;94742.84;;;18.00;100.00
13029;BME280;6581;42.662;23.402;2022-08-14T02:10:09;94747.00;;;18.01;100.00
13029;BME280;6581;42.662;23.402;2022-08-14T02:12:38;94746.47;;;18.10;100.00
13029;BME280;6581;42.662;23.402;2022-08-14T02:15:07;94740.41;;;18.06;100.00
13029;BME280;6581;42.662;23.402;2022-08-14T02:17:36;94736.06;;;18.12;100.00
13029;BME280;6581;42.662;23.402;2022-08-14T02:20:04;94734.47;;;18.14;100.00
13029;BME280;6581;42.662;23.402;2022-08-14T02:22:33;94731.72;;;18.18;100.00
13029;BME280;6581;42.662;23.402;2022-08-14T02:25:02;94726.00;;;18.16;100.00
13029;BME280;6581;42.662;23.402;2022-08-14T02:27:30;94728.78;;;18.12;100.00
13029;BME280;6581;42.662;23.402;2022-08-14T02:29:59;94728.28;;;18.17;100.00
13029;BME280;6581;42.662;23.402;2022-08-14T02:32:51;94730.88;;;18.21;100.00
13029;BME280;6581;42.662;23.402;2022-08-14T02:35:19;94734.31;;;18.22;100.00
13029;BME280;6581;42.662;23.402;2022-08-14T02:37:50;94733.13;;;18.23;100.00
13029;BME280;6581;42.662;23.402;2022-08-14T02:40:19;94730.44;;;18.23;100.00
13029;BME280;6581;42.662;23.402;2022-08-14T02:42:47;94725.41;;;18.25;100.00
13029;BME280;6581;42.662;23.402;2022-08-14T02:45:16;94729.03;;;18.18;100.00
13029;BME280;6581;42.662;23.402;2022-08-14T02:47:43;94734.03;;;18.16;100.00
13029;BME280;6581;42.662;23.402;2022-08-14T02:50:10;94733.22;;;18.19;100.00
13029;BME280;6581;42.662;23.402;2022-08-14T02:52:38;94726.25;;;18.22;100.00
13029;BME280;6581;42.662;23.402;2022-08-14T02:55:06;94718.31;;;18.18;100.00
13029;BME280;6581;42.662;23.402;2022-08-14T02:57:34;94717.28;;;18.12;100.00
13029;BME280;6581;42.662;23.402;2022-08-14T03:00:04;94721.41;;;18.00;100.00
13029;BME280;6581;42.662;23.402;2022-08-14T03:02:33;94721.06;;;17.98;100.00
13029;BME280;6581;42.662;23.402;2022-08-14T03:05:00;94718.56;;;18.07;100.00
13029;BME280;6581;42.662;23.402;2022-08-14T03:07:27;94726.75;;;18.16;100.00
13029;BME280;6581;42.662;23.402;2022-08-14T03:10:20;94723.66;;;18.18;100.00
13029;BME280;6581;42.662;23.402;2022-08-14T03:12:47;94726.75;;;18.16;100.00
13029;BME280;6581;42.662;23.402;2022-08-14T03:15:15;94730.53;;;18.19;100.00
13029;BME280;6581;42.662;23.402;2022-08-14T03:17:43;94720.47;;;18.07;100.00
13029;BME280;6581;42.662;23.402;2022-08-14T03:20:12;94727.75;;;18.06;100.00
13029;BME280;6581;42.662;23.402;2022-08-14T03:22:40;94727.41;;;17.88;100.00
13029;BME280;6581;42.662;23.402;2022-08-14T03:25:07;94728.44;;;17.94;100.00
13029;BME280;6581;42.662;23.402;2022-08-14T03:27:37;94734.03;;;18.00;100.00
13029;BME280;6581;42.662;23.402;2022-08-14T03:30:06;94734.13;;;18.12;100.00
13029;BME280;6581;42.662;23.402;2022-08-14T03:32:33;94738.16;;;18.21;100.00
13029;BME280;6581;42.662;23.402;2022-08-14T03:35:03;94746.44;;;18.26;100.00
13029;BME280;6581;42.662;23.402;2022-08-14T03:37:31;94745.94;;;18.31;100.00
13029;BME280;6581;42.662;23.402;2022-08-14T03:39:59;94751.88;;;18.39;100.00
13029;BME280;6581;42.662;23.402;2022-08-14T03:42:26;94746.09;;;18.40;100.00
13029;BME280;6581;42.662;23.402;2022-08-14T03:44:53;94744.09;;;18.44;100.00
13029;BME280;6581;42.662;23.402;2022-08-14T03:47:21;94751.97;;;18.51;100.00
13029;BME280;6581;42.662;23.402;2022-08-14T03:49:49;94751.72;;;18.46;100.00
13029;BME280;6581;42.662;23.402;2022-08-14T03:52:18;94756.66;;;18.47;100.00
13029;BME280;6581;42.662;23.402;2022-08-14T03:54:46;94761.69;;;18.45;100.00
13029;BME280;6581;42.662;23.402;2022-08-14T03:57:14;94758.56;;;18.47;100.00
13029;BME280;6581;42.662;23.402;2022-08-14T03:59:41;94759.78;;;18.46;100.00
13029;BME280;6581;42.662;23.402;2022-08-14T04:02:08;94749.09;;;18.42;100.00
13029;BME280;6581;42.662;23.402;2022-08-14T04:04:36;94751.28;;;18.47;100.00
13029;BME280;6581;42.662;23.402;2022-08-14T04:07:04;94750.78;;;18.52;100.00
13029;BME280;6581;42.662;23.402;2022-08-14T04:09:32;94752.22;;;18.57;100.00
13029;BME280;6581;42.662;23.402;2022-08-14T04:11:59;94754.50;;;18.58;100.00
13029;BME280;6581;42.662;23.402;2022-08-14T04:14:27;94752.16;;;18.61;100.00
13029;BME280;6581;42.662;23.402;2022-08-14T04:16:54;94758.34;;;18.57;100.00
13029;BME280;6581;42.662;23.402;2022-08-14T04:19:21;94761.63;;;18.65;100.00
13029;BME280;6581;42.662;23.402;2022-08-14T04:21:49;94757.00;;;18.66;100.00
13029;BME280;6581;42.662;23.402;2022-08-14T04:24:16;94759.50;;;18.73;100.00
13029;BME280;6581;42.662;23.402;2022-08-14T04:26:45;94760.78;;;18.68;100.00
13029;BME280;6581;42.662;23.402;2022-08-14T04:29:13;94758.34;;;18.74;100.00
13029;BME280;6581;42.662;23.402;2022-08-14T04:31:40;94756.84;;;18.73;100.00
13029;BME280;6581;42.662;23.402;2022-08-14T04:34:07;94760.19;;;18.77;100.00
13029;BME280;6581;42.662;23.402;2022-08-14T04:36:35;94757.41;;;18.80;100.00
13029;BME280;6581;42.662;23.402;2022-08-14T04:39:22;94756.75;;;18.76;100.00
13029;BME280;6581;42.662;23.402;2022-08-14T04:42:09;94755.88;;;18.79;100.00
13029;BME280;6581;42.662;23.402;2022-08-14T04:44:53;94756.63;;;18.80;100.00
13029;BME280;6581;42.662;23.402;2022-08-14T04:47:20;94761.25;;;18.79;100.00
13029;BME280;6581;42.662;23.402;2022-08-14T04:50:05;94754.31;;;18.82;100.00
13029;BME280;6581;42.662;23.402;2022-08-14T04:52:32;94756.63;;;18.80;100.00
13029;BME280;6581;42.662;23.402;2022-08-14T04:55:00;94750.97;;;18.78;100.00
13029;BME280;6581;42.662;23.402;2022-08-14T04:57:28;94757.41;;;18.80;100.00
13029;BME280;6581;42.662;23.402;2022-08-14T04:59:56;94751.28;;;18.80;100.00
13029;BME280;6581;42.662;23.402;2022-08-14T05:02:23;94753.19;;;18.95;100.00
13029;BME280;6581;42.662;23.402;2022-08-14T05:04:52;94752.06;;;18.93;100.00
13029;BME280;6581;42.662;23.402;2022-08-14T05:07:19;94757.38;;;18.96;100.00
13029;BME280;6581;42.662;23.402;2022-08-14T05:09:46;94756.41;;;19.03;100.00
13029;BME280;6581;42.662;23.402;2022-08-14T05:12:13;94759.59;;;19.14;100.00
13029;BME280;6581;42.662;23.402;2022-08-14T05:14:43;94758.22;;;19.22;100.00
13029;BME280;6581;42.662;23.402;2022-08-14T05:17:11;94761.31;;;19.21;100.00
13029;BME280;6581;42.662;23.402;2022-08-14T05:19:39;94754.47;;;19.20;100.00
13029;BME280;6581;42.662;23.402;2022-08-14T05:22:31;94752.91;;;19.06;100.00
13029;BME280;6581;42.662;23.402;2022-08-14T05:24:58;94760.41;;;19.11;100.00
13029;BME280;6581;42.662;23.402;2022-08-14T05:27:26;94764.09;;;19.17;100.00
13029;BME280;6581;42.662;23.402;2022-08-14T05:29:55;94766.59;;;19.24;100.00
13029;BME280;6581;42.662;23.402;2022-08-14T05:32:23;94756.94;;;19.27;100.00
13029;BME280;6581;42.662;23.402;2022-08-14T05:34:51;94757.34;;;19.25;100.00
13029;BME280;6581;42.662;23.402;2022-08-14T05:37:18;94763.91;;;19.24;100.00
13029;BME280;6581;42.662;23.402;2022-08-14T05:39:45;94760.28;;;19.31;100.00
13029;BME280;6581;42.662;23.402;2022-08-14T05:42:12;94774.88;;;19.30;100.00
13029;BME280;6581;42.662;23.402;2022-08-14T05:44:39;94766.63;;;19.37;100.00
13029;BME280;6581;42.662;23.402;2022-08-14T05:47:08;94763.75;;;19.44;100.00
13029;BME280;6581;42.662;23.402;2022-08-14T05:49:36;94766.28;;;19.51;100.00
13029;BME280;6581;42.662;23.402;2022-08-14T05:52:03;94771.47;;;19.42;100.00
13029;BME280;6581;42.662;23.402;2022-08-14T05:54:31;94764.34;;;19.52;100.00
13029;BME280;6581;42.662;23.402;2022-08-14T05:56:58;94765.09;;;19.52;100.00
13029;BME280;6581;42.662;23.402;2022-08-14T05:59:25;94758.84;;;19.55;100.00
13029;BME280;6581;42.662;23.402;2022-08-14T06:01:52;94763.25;;;19.62;100.00
13029;BME280;6581;42.662;23.402;2022-08-14T06:04:21;94763.59;;;19.64;100.00
13029;BME280;6581;42.662;23.402;2022-08-14T06:06:48;94760.69;;;19.71;100.00
13029;BME280;6581;42.662;23.402;2022-08-14T06:09:16;94767.56;;;19.72;100.00
13029;BME280;6581;42.662;23.402;2022-08-14T06:11:43;94766.75;;;19.75;100.00
13029;BME280;6581;42.662;23.402;2022-08-14T06:14:10;94770.16;;;19.75;100.00
13029;BME280;6581;42.662;23.402;2022-08-14T06:16:38;94777.78;;;19.77;100.00
13029;BME280;6581;42.662;23.402;2022-08-14T06:19:07;94770.72;;;19.70;100.00
13029;BME280;6581;42.662;23.402;2022-08-14T06:21:36;94775.34;;;19.70;100.00
13029;BME280;6581;42.662;23.402;2022-08-14T06:24:04;94769.84;;;19.61;100.00
13029;BME280;6581;42.662;23.402;2022-08-14T06:26:32;94779.19;;;19.56;100.00
13029;BME280;6581;42.662;23.402;2022-08-14T06:28:59;94783.56;;;19.63;100.00
13029;BME280;6581;42.662;23.402;2022-08-14T06:31:26;94782.19;;;19.71;100.00
13029;BME280;6581;42.662;23.402;2022-08-14T06:33:53;94782.81;;;19.62;100.00
13029;BME280;6581;42.662;23.402;2022-08-14T06:36:21;94782.50;;;19.60;100.00
13029;BME280;6581;42.662;23.402;2022-08-14T06:38:52;94791.63;;;19.63;100.00
13029;BME280;6581;42.662;23.402;2022-08-14T06:41:20;94788.84;;;19.66;100.00
13029;BME280;6581;42.662;23.402;2022-08-14T06:43:48;94790.00;;;19.53;100.00
13029;BME280;6581;42.662;23.402;2022-08-14T06:46:40;94787.31;;;19.53;100.00
13029;BME280;6581;42.662;23.402;2022-08-14T06:49:08;94786.72;;;19.32;100.00
13029;BME280;6581;42.662;23.402;2022-08-14T06:51:35;94792.31;;;19.38;100.00
13029;BME280;6581;42.662;23.402;2022-08-14T06:54:34;94787.88;;;19.31;100.00
13029;BME280;6581;42.662;23.402;2022-08-14T06:57:02;94787.19;;;19.43;100.00
13029;BME280;6581;42.662;23.402;2022-08-14T06:59:29;94790.56;;;19.31;100.00
13029;BME280;6581;42.662;23.402;2022-08-14T07:01:57;94789.44;;;19.45;100.00
13029;BME280;6581;42.662;23.402;2022-08-14T07:04:41;94788.34;;;19.42;100.00
13029;BME280;6581;42.662;23.402;2022-08-14T07:07:34;94792.72;;;19.36;100.00
13029;BME280;6581;42.662;23.402;2022-08-14T07:10:04;94790.81;;;19.37;100.00
13029;BME280;6581;42.662;23.402;2022-08-14T07:12:31;94795.72;;;19.55;100.00
13029;BME280;6581;42.662;23.402;2022-08-14T07:14:59;94791.78;;;19.43;100.00
13029;BME280;6581;42.662;23.402;2022-08-14T07:17:26;94796.41;;;19.42;100.00
13029;BME280;6581;42.662;23.402;2022-08-14T07:19:54;94788.78;;;19.41;100.00
13029;BME280;6581;42.662;23.402;2022-08-14T07:22:21;94791.09;;;19.55;100.00
13029;BME280;6581;42.662;23.402;2022-08-14T07:24:49;94792.47;;;19.47;100.00
13029;BME280;6581;42.662;23.402;2022-08-14T07:27:18;94787.00;;;19.51;100.00
13029;BME280;6581;42.662;23.402;2022-08-14T07:29:45;94795.59;;;19.45;100.00
13029;BME280;6581;42.662;23.402;2022-08-14T07:32:13;94792.59;;;19.56;100.00
13029;BME280;6581;42.662;23.402;2022-08-14T07:34:40;94786.06;;;19.70;100.00
13029;BME280;6581;42.662;23.402;2022-08-14T07:37:07;94791.03;;;19.84;100.00
13029;BME280;6581;42.662;23.402;2022-08-14T07:39:35;94786.75;;;19.99;100.00
13029;BME280;6581;42.662;23.402;2022-08-14T07:42:02;94781.91;;;20.07;100.00
13029;BME280;6581;42.662;23.402;2022-08-14T07:44:31;94784.81;;;20.25;100.00
13029;BME280;6581;42.662;23.402;2022-08-14T07:47:02;94789.88;;;20.35;100.00
13029;BME280;6581;42.662;23.402;2022-08-14T07:49:30;94797.09;;;20.39;100.00
13029;BME280;6581;42.662;23.402;2022-08-14T07:52:00;94794.59;;;20.44;100.00
13029;BME280;6581;42.662;23.402;2022-08-14T07:54:28;94799.22;;;20.56;100.00
13029;BME280;6581;42.662;23.402;2022-08-14T07:56:56;94794.59;;;20.44;100.00
13029;BME280;6581;42.662;23.402;2022-08-14T07:59:24;94801.38;;;20.49;100.00
13029;BME280;6581;42.662;23.402;2022-08-14T08:01:53;94796.66;;;20.40;100.00
13029;BME280;6581;42.662;23.402;2022-08-14T08:04:23;94799.25;;;20.44;100.00
13029;BME280;6581;42.662;23.402;2022-08-14T08:06:52;94798.81;;;20.45;100.00
13029;BME280;6581;42.662;23.402;2022-08-14T08:09:23;94797.22;;;20.48;100.00
13029;BME280;6581;42.662;23.402;2022-08-14T08:11:53;94799.69;;;20.42;100.00
13029;BME280;6581;42.662;23.402;2022-08-14T08:14:21;94798.59;;;20.52;100.00
13029;BME280;6581;42.662;23.402;2022-08-14T08:16:49;94795.56;;;20.50;100.00
13029;BME280;6581;42.662;23.402;2022-08-14T08:19:18;94792.38;;;20.43;100.00
13029;BME280;6581;42.662;23.402;2022-08-14T08:21:45;94781.59;;;20.55;100.00
13029;BME280;6581;42.662;23.402;2022-08-14T08:24:13;94780.69;;;20.58;100.00
13029;BME280;6581;42.662;23.402;2022-08-14T08:26:40;94787.59;;;20.59;99.82
13029;BME280;6581;42.662;23.402;2022-08-14T08:29:08;94786.31;;;20.51;98.53
13029;BME280;6581;42.662;23.402;2022-08-14T08:31:45;94785.69;;;20.47;99.91
13029;BME280;6581;42.662;23.402;2022-08-14T08:34:43;94781.69;;;20.52;100.00
13029;BME280;6581;42.662;23.402;2022-08-14T08:37:11;94781.16;;;20.57;99.43
13029;BME280;6581;42.662;23.402;2022-08-14T08:39:43;94783.09;;;20.91;99.88
13029;BME280;6581;42.662;23.402;2022-08-14T08:42:10;94779.44;;;20.97;97.67
13029;BME280;6581;42.662;23.402;2022-08-14T08:44:38;94779.97;;;20.92;96.73
13029;BME280;6581;42.662;23.402;2022-08-14T08:47:37;94786.41;;;20.95;95.92
13029;BME280;6581;42.662;23.402;2022-08-14T08:50:32;94774.53;;;21.17;94.51
13029;BME280;6581;42.662;23.402;2022-08-14T08:53:01;94778.00;;;21.40;93.79
13029;BME280;6581;42.662;23.402;2022-08-14T08:55:31;94781.38;;;21.53;91.43
13029;BME280;6581;42.662;23.402;2022-08-14T08:58:01;94771.03;;;21.51;90.13
13029;BME280;6581;42.662;23.402;2022-08-14T09:00:31;94774.34;;;21.55;89.82
13029;BME280;6581;42.662;23.402;2022-08-14T09:03:03;94764.56;;;21.27;87.90
13029;BME280;6581;42.662;23.402;2022-08-14T09:05:34;94763.00;;;21.39;88.57
13029;BME280;6581;42.662;23.402;2022-08-14T09:08:28;94763.75;;;21.61;88.31
13029;BME280;6581;42.662;23.402;2022-08-14T09:10:57;94764.63;;;21.36;86.86
13029;BME280;6581;42.662;23.402;2022-08-14T09:13:25;94763.50;;;21.46;87.15
13029;BME280;6581;42.662;23.402;2022-08-14T09:15:53;94759.06;;;21.31;86.73
13029;BME280;6581;42.662;23.402;2022-08-14T09:18:22;94771.16;;;21.48;88.00
13029;BME280;6581;42.662;23.402;2022-08-14T09:20:54;94769.03;;;21.43;88.83
13029;BME280;6581;42.662;23.402;2022-08-14T09:23:22;94751.63;;;21.35;87.57
13029;BME280;6581;42.662;23.402;2022-08-14T09:25:50;94756.50;;;21.49;87.32
13029;BME280;6581;42.662;23.402;2022-08-14T09:28:20;94752.84;;;21.64;85.81
13029;BME280;6581;42.662;23.402;2022-08-14T09:30:51;94758.91;;;21.56;86.44
13029;BME280;6581;42.662;23.402;2022-08-14T09:33:34;94761.25;;;21.66;86.21
13029;BME280;6581;42.662;23.402;2022-08-14T09:36:24;94758.88;;;21.78;86.08
13029;BME280;6581;42.662;23.402;2022-08-14T09:39:00;94762.56;;;21.40;88.14
13029;BME280;6581;42.662;23.402;2022-08-14T09:41:41;94759.34;;;21.76;86.88
13029;BME280;6581;42.662;23.402;2022-08-14T09:44:43;94765.81;;;22.19;85.68
13029;BME280;6581;42.662;23.402;2022-08-14T09:47:13;94765.16;;;22.36;83.96
13029;BME280;6581;42.662;23.402;2022-08-14T09:49:41;94764.75;;;22.56;83.18
13029;BME280;6581;42.662;23.402;2022-08-14T09:52:11;94764.97;;;23.25;81.67
13029;BME280;6581;42.662;23.402;2022-08-14T09:54:40;94761.22;;;23.50;77.37
13029;BME280;6581;42.662;23.402;2022-08-14T09:57:09;94761.16;;;23.87;78.07
13029;BME280;6581;42.662;23.402;2022-08-14T09:59:39;94757.50;;;23.99;75.70
13029;BME280;6581;42.662;23.402;2022-08-14T10:02:25;94758.25;;;23.99;75.17
13029;BME280;6581;42.662;23.402;2022-08-14T10:05:01;94757.59;;;23.62;78.09
13029;BME280;6581;42.662;23.402;2022-08-14T10:07:31;94750.09;;;23.48;77.65
13029;BME280;6581;42.662;23.402;2022-08-14T10:10:00;94750.25;;;23.54;76.53
13029;BME280;6581;42.662;23.402;2022-08-14T10:12:47;94751.91;;;23.51;77.62
13029;BME280;6581;42.662;23.402;2022-08-14T10:16:04;94759.13;;;23.18;78.10
13029;BME280;6581;42.662;23.402;2022-08-14T10:19:00;94756.88;;;23.07;78.20
13029;BME280;6581;42.662;23.402;2022-08-14T10:21:28;94749.09;;;22.91;80.23
13029;BME280;6581;42.662;23.402;2022-08-14T10:23:56;94752.06;;;23.02;79.74
13029;BME280;6581;42.662;23.402;2022-08-14T10:26:23;94752.81;;;23.12;77.62
13029;BME280;6581;42.662;23.402;2022-08-14T10:28:53;94743.53;;;23.13;76.48
13029;BME280;6581;42.662;23.402;2022-08-14T10:31:23;94725.03;;;23.29;77.18
13029;BME280;6581;42.662;23.402;2022-08-14T10:34:02;94724.97;;;23.66;77.10
13029;BME280;6581;42.662;23.402;2022-08-14T10:36:32;94728.88;;;23.65;76.94
13029;BME280;6581;42.662;23.402;2022-08-14T10:39:05;94724.75;;;23.36;74.49
13029;BME280;6581;42.662;23.402;2022-08-14T10:41:38;94719.94;;;23.31;76.33
13029;BME280;6581;42.662;23.402;2022-08-14T10:44:09;94716.72;;;23.60;76.02
13029;BME280;6581;42.662;23.402;2022-08-14T10:46:41;94711.88;;;23.82;75.26
13029;BME280;6581;42.662;23.402;2022-08-14T10:49:17;94710.59;;;23.93;74.32
13029;BME280;6581;42.662;23.402;2022-08-14T10:51:55;94706.84;;;24.32;73.74
13029;BME280;6581;42.662;23.402;2022-08-14T10:54:37;94702.09;;;24.51;72.15
13029;BME280;6581;42.662;23.402;2022-08-14T10:57:16;94692.56;;;24.55;71.43
13029;BME280;6581;42.662;23.402;2022-08-14T10:59:47;94689.31;;;24.66;70.21
13029;BME280;6581;42.662;23.402;2022-08-14T11:02:23;94691.88;;;24.46;69.46
13029;BME280;6581;42.662;23.402;2022-08-14T11:05:02;94692.97;;;24.39;69.65
13029;BME280;6581;42.662;23.402;2022-08-14T11:07:31;94687.84;;;24.08;69.40
13029;BME280;6581;42.662;23.402;2022-08-14T11:10:04;94696.25;;;23.77;71.08
13029;BME280;6581;42.662;23.402;2022-08-14T11:12:42;94682.91;;;24.07;70.47
13029;BME280;6581;42.662;23.402;2022-08-14T11:15:15;94684.56;;;24.37;70.89
13029;BME280;6581;42.662;23.402;2022-08-14T11:17:44;94685.09;;;24.50;70.27
13029;BME280;6581;42.662;23.402;2022-08-14T11:20:13;94681.19;;;24.51;68.77
13029;BME280;6581;42.662;23.402;2022-08-14T11:22:41;94679.66;;;24.50;67.19
13029;BME280;6581;42.662;23.402;2022-08-14T11:25:12;94674.56;;;23.96;68.48
13029;BME280;6581;42.662;23.402;2022-08-14T11:27:40;94683.19;;;24.09;68.90
13029;BME280;6581;42.662;23.402;2022-08-14T11:30:10;94678.41;;;24.04;68.72
13029;BME280;6581;42.662;23.402;2022-08-14T11:32:39;94680.28;;;23.89;68.79
13029;BME280;6581;42.662;23.402;2022-08-14T11:35:11;94684.97;;;23.79;70.27
13029;BME280;6581;42.662;23.402;2022-08-14T11:37:51;94686.13;;;23.96;70.86
13029;BME280;6581;42.662;23.402;2022-08-14T11:40:22;94691.69;;;23.93;69.33
13029;BME280;6581;42.662;23.402;2022-08-14T11:42:52;94694.34;;;24.02;68.44
13029;BME280;6581;42.662;23.402;2022-08-14T11:45:21;94683.31;;;24.14;67.20
13029;BME280;6581;42.662;23.402;2022-08-14T11:47:50;94683.47;;;24.11;67.94
13029;BME280;6581;42.662;23.402;2022-08-14T11:50:20;94684.16;;;24.29;67.97
13029;BME280;6581;42.662;23.402;2022-08-14T11:52:49;94683.25;;;24.33;66.45
13029;BME280;6581;42.662;23.402;2022-08-14T11:55:18;94681.03;;;24.22;67.02
13029;BME280;6581;42.662;23.402;2022-08-14T11:57:58;94683.19;;;24.18;67.82
13029;BME280;6581;42.662;23.402;2022-08-14T12:00:27;94680.19;;;24.40;68.01
13029;BME280;6581;42.662;23.402;2022-08-14T12:02:56;94670.97;;;24.46;66.07
13029;BME280;6581;42.662;23.402;2022-08-14T12:05:28;94676.34;;;24.32;66.78
13029;BME280;6581;42.662;23.402;2022-08-14T12:07:57;94679.38;;;24.48;65.85
13029;BME280;6581;42.662;23.402;2022-08-14T12:10:25;94681.75;;;24.55;64.58
13029;BME280;6581;42.662;23.402;2022-08-14T12:12:56;94679.03;;;24.55;64.71
13029;BME280;6581;42.662;23.402;2022-08-14T12:15:33;94669.75;;;24.86;63.50
13029;BME280;6581;42.662;23.402;2022-08-14T12:18:02;94670.56;;;24.39;65.56
13029;BME280;6581;42.662;23.402;2022-08-14T12:20:33;94663.88;;;24.25;65.23
13029;BME280;6581;42.662;23.402;2022-08-14T12:23:02;94664.13;;;24.36;63.88
13029;BME280;6581;42.662;23.402;2022-08-14T12:25:32;94665.16;;;24.39;63.62
13029;BME280;6581;42.662;23.402;2022-08-14T12:28:03;94656.28;;;24.14;65.46
13029;BME280;6581;42.662;23.402;2022-08-14T12:30:39;94648.31;;;24.11;67.56
13029;BME280;6581;42.662;23.402;2022-08-14T12:33:19;94652.59;;;23.94;66.17
13029;BME280;6581;42.662;23.402;2022-08-14T12:35:51;94652.78;;;23.57;68.00
13029;BME280;6581;42.662;23.402;2022-08-14T12:38:30;94656.69;;;23.47;68.68
13029;BME280;6581;42.662;23.402;2022-08-14T12:40:59;94660.28;;;23.53;70.20
13029;BME280;6581;42.662;23.402;2022-08-14T12:43:29;94664.06;;;23.47;70.51
13029;BME280;6581;42.662;23.402;2022-08-14T12:45:57;94665.88;;;23.31;71.50
13029;BME280;6581;42.662;23.402;2022-08-14T12:48:25;94664.41;;;23.21;71.12
13029;BME280;6581;42.662;23.402;2022-08-14T12:50:54;94651.38;;;23.02;72.36
13029;BME280;6581;42.662;23.402;2022-08-14T12:53:32;94645.84;;;22.96;73.27
13029;BME280;6581;42.662;23.402;2022-08-14T12:56:01;94653.19;;;23.05;74.03
13029;BME280;6581;42.662;23.402;2022-08-14T12:58:31;94648.97;;;23.13;75.41
13029;BME280;6581;42.662;23.402;2022-08-14T13:00:59;94643.72;;;23.18;76.55
13029;BME280;6581;42.662;23.402;2022-08-14T13:04:02;94632.78;;;23.04;77.97
13029;BME280;6581;42.662;23.402;2022-08-14T13:06:32;94637.56;;;23.09;79.80
13029;BME280;6581;42.662;23.402;2022-08-14T13:09:03;94634.16;;;22.81;77.76
13029;BME280;6581;42.662;23.402;2022-08-14T13:11:36;94634.59;;;22.79;79.52